CST,Max TemperatureF,Mean TemperatureF,Min TemperatureF,Max Dew PointF,MeanDew PointF,Min DewpointF,Max Humidity, Mean Humidity, Min Humidity, Max Sea Level PressureIn, Mean Sea Level PressureIn, Min Sea Level PressureIn, Max VisibilityMiles, Mean VisibilityMiles, Min VisibilityMiles, Max Wind SpeedMPH, Mean Wind SpeedMPH, Max Gust SpeedMPH,PrecipitationIn, CloudCover, Events, WindDirDegrees
2014-1-1,-5,-14,-22,-17,-22,-29,91,58,53,30.39,30.35,30.29,10,9,3,9,4,,0.00,5,,143
2014-1-2,1,-13,-27,-8,-17,-27,70,61,54,30.38,30.23,29.80,10,10,3,18,4,24,0.00,1,,180
2014-1-3,35,18,1,30,9,-8,87,70,61,29.79,29.40,29.15,10,7,0,32,16,37,0.05,7,,211
2014-1-4,10,-2,-14,1,-15,-26,67,57,49,30.20,30.01,29.67,10,9,2,26,20,33,0.00,2,,313
2014-1-5,-14,-18,-23,-26,-27,-29,64,57,53,30.39,30.33,30.20,10,7,0,29,18,31,0.00,4,,308
2014-1-6,-5,-16,-25,-18,-24,-29,65,56,45,30.33,30.18,29.97,10,10,6,21,17,23,0.00,3,,295
2014-1-7,-2,-8,-16,-11,-19,-27,66,59,49,30.20,30.06,29.94,10,10,5,14,9,,0.00,3,,321
2014-1-8,6,-6,-18,-4,-20,-29,100,60,50,30.31,30.19,29.94,10,10,4,21,6,26,0.00,3,,206
2014-1-9,26,16,6,18,11,-4,80,70,61,29.91,29.65,29.50,10,10,9,22,14,26,0.00,3,,189
2014-1-10,32,22,12,21,18,7,80,72,64,29.49,29.42,29.37,10,10,8,22,9,24,0.00,4,,254
2014-1-11,30,22,17,19,15,10,80,73,64,29.60,29.49,29.22,10,10,5,21,14,25,0.00,4,,254
2014-1-12,37,29,21,30,24,14,81,69,64,29.56,29.28,29.13,10,10,10,31,16,34,0.00,3,,273
2014-1-13,21,14,6,12,6,-2,79,68,62,29.63,29.54,29.46,10,10,2,25,14,31,0.00,6,,246
2014-1-14,19,5,-9,12,1,-20,74,66,55,30.19,30.01,29.65,10,6,1,29,17,38,0.00,5,,334
2014-1-15,41,16,-9,28,11,-20,81,67,54,30.11,29.57,29.28,10,9,1,36,14,43,0.00,4,,246
2014-1-16,33,16,0,23,-2,-13,75,61,48,30.15,29.85,29.36,10,5,0,39,26,47,0.00,4,,338
2014-1-17,32,12,-7,25,3,-17,80,70,55,30.10,29.80,29.40,10,9,2,29,7,33,0.00,3,,194
2014-1-18,35,22,10,27,15,1,80,73,65,29.95,29.72,29.40,10,7,1,32,22,39,0.00,6,,303
2014-1-19,33,22,10,25,16,3,86,77,68,29.77,29.55,29.44,10,8,0,18,9,,0.00,4,,335
2014-1-20,10,-2,-14,1,-17,-27,72,59,49,30.49,30.23,29.78,10,6,0,26,15,32,0.00,4,,8
2014-1-21,12,-1,-14,3,-7,-27,73,63,53,30.38,30.04,29.87,10,7,1,29,11,36,0.00,7,,244
2014-1-22,12,-1,-14,3,-18,-26,73,58,49,30.60,30.37,29.98,10,6,0,31,19,38,0.00,4,,336
2014-1-23,26,3,-20,18,-10,-29,74,60,47,30.62,30.30,29.70,10,10,2,29,12,37,0.00,2,,243
2014-1-24,35,22,8,28,18,-2,81,71,57,29.85,29.66,29.51,10,9,1,34,21,40,0.00,5,,318
2014-1-25,10,5,0,3,-4,-11,73,62,48,29.96,29.73,29.38,10,8,1,18,11,22,0.00,5,,243
2014-1-26,17,2,-13,9,-9,-26,79,60,49,30.23,29.76,29.39,10,4,0,40,24,50,0.00,8,,334
2014-1-27,-9,-14,-18,-22,-26,-29,70,55,49,30.34,30.30,30.24,10,10,10,20,14,,0.00,1,,299
2014-1-28,0,-8,-16,-11,-20,-29,60,55,50,30.27,30.09,29.83,10,10,10,22,16,24,0.00,1,,275
2014-1-29,19,10,0,9,-1,-13,67,60,52,29.82,29.54,29.43,10,10,5,31,15,38,0.00,2,,274
2014-1-30,3,-3,-9,-9,-15,-22,66,57,50,29.90,29.79,29.58,10,9,3,22,15,18,0.00,3,,317
2014-1-31,10,0,-11,0,-11,-24,67,59,52,29.90,29.78,29.70,10,10,10,20,13,23,0.00,1,,249